createdAt,value
2018-06-18T00:00:28.939Z,7.47
2018-06-18T00:02:56.284Z,7.50
2018-06-18T00:05:23.754Z,7.90
2018-06-18T00:07:51.030Z,7.83
2018-06-18T00:10:18.484Z,6.73
2018-06-18T00:12:45.861Z,7.73
2018-06-18T00:15:13.253Z,9.83
2018-06-18T00:17:40.554Z,9.00
2018-06-18T00:20:07.910Z,7.80
2018-06-18T00:22:35.193Z,8.43
2018-06-18T00:25:02.507Z,9.47
2018-06-18T00:27:30.211Z,8.97
2018-06-18T00:29:57.605Z,7.40
2018-06-18T00:32:25.018Z,8.27
2018-06-18T00:34:52.339Z,8.87
2018-06-18T00:37:19.633Z,9.60
2018-06-18T00:39:46.891Z,7.67
2018-06-18T00:42:14.216Z,9.50
2018-06-18T00:44:41.578Z,8.67
2018-06-18T00:47:09.032Z,7.83
2018-06-18T00:49:36.365Z,7.87
2018-06-18T00:52:03.826Z,8.93
2018-06-18T00:54:31.098Z,9.73
2018-06-18T00:56:58.379Z,7.80
2018-06-18T00:59:25.682Z,9.27
2018-06-18T01:01:53.098Z,9.20
2018-06-18T01:04:20.422Z,8.20
2018-06-18T01:06:47.760Z,9.47
2018-06-18T01:09:15.153Z,8.23
2018-06-18T01:11:42.466Z,9.07
2018-06-18T01:14:09.806Z,7.57
2018-06-18T01:16:37.184Z,7.63
2018-06-18T01:19:04.466Z,7.57
2018-06-18T01:21:31.854Z,8.93
2018-06-18T01:24:10.803Z,8.53
2018-06-18T01:26:38.171Z,8.63
2018-06-18T01:29:05.440Z,7.40
2018-06-18T01:31:32.785Z,7.87
2018-06-18T01:34:01.394Z,7.87
2018-06-18T01:36:28.899Z,8.87
2018-06-18T01:38:56.229Z,7.20
2018-06-18T01:41:23.547Z,6.93
2018-06-18T01:43:50.857Z,6.33
2018-06-18T01:46:18.153Z,7.43
2018-06-18T01:48:45.678Z,9.30
2018-06-18T01:51:12.986Z,6.87
2018-06-18T01:53:40.342Z,6.30
2018-06-18T01:56:07.654Z,7.83
2018-06-18T01:58:34.994Z,7.20
2018-06-18T02:01:02.291Z,7.17
2018-06-18T02:03:29.641Z,6.70
2018-06-18T02:05:56.995Z,7.37
2018-06-18T02:08:24.475Z,7.33
2018-06-18T02:10:51.767Z,7.03
2018-06-18T02:13:19.038Z,5.63
2018-06-18T02:15:46.314Z,6.33
2018-06-18T02:18:13.586Z,7.67
2018-06-18T02:20:40.869Z,6.57
2018-06-18T02:23:08.133Z,6.37
2018-06-18T02:25:35.531Z,6.17
2018-06-18T02:28:08.677Z,6.10
2018-06-18T02:30:41.524Z,8.33
2018-06-18T02:33:14.452Z,6.53
2018-06-18T02:35:47.394Z,7.80
2018-06-18T02:38:20.346Z,6.70
2018-06-18T02:40:47.698Z,5.83
2018-06-18T02:43:20.556Z,6.67
2018-06-18T02:45:47.906Z,7.33
2018-06-18T02:48:15.210Z,6.27
2018-06-18T02:50:42.781Z,6.83
2018-06-18T02:53:10.147Z,7.90
2018-06-18T02:55:38.941Z,8.03
2018-06-18T02:58:06.288Z,8.70
2018-06-18T03:00:34.646Z,7.50
2018-06-18T03:03:01.931Z,8.03
2018-06-18T03:05:29.281Z,8.20
2018-06-18T03:07:56.540Z,9.07
2018-06-18T03:10:23.889Z,8.33
2018-06-18T03:12:51.188Z,8.63
2018-06-18T03:15:18.571Z,10.57
2018-06-18T03:17:45.819Z,10.80
2018-06-18T03:20:18.851Z,9.37
2018-06-18T03:22:52.234Z,9.63
2018-06-18T03:25:26.090Z,8.40
2018-06-18T03:27:59.293Z,9.23
2018-06-18T03:30:26.736Z,11.53
2018-06-18T03:32:54.132Z,8.33
2018-06-18T03:35:21.526Z,12.03
2018-06-18T03:37:49.261Z,11.73
2018-06-18T03:40:16.594Z,7.30
2018-06-18T03:42:44.191Z,11.57
2018-06-18T03:45:18.750Z,9.00
2018-06-18T03:47:46.062Z,10.43
2018-06-18T03:50:13.552Z,8.53
2018-06-18T03:52:40.843Z,9.97
2018-06-18T03:55:16.437Z,11.53
2018-06-18T03:57:43.716Z,11.07
2018-06-18T04:00:10.997Z,8.60
2018-06-18T04:02:52.346Z,10.43
2018-06-18T04:05:25.282Z,10.53
2018-06-18T04:07:58.699Z,8.33
2018-06-18T04:10:33.456Z,7.23
2018-06-18T04:13:00.765Z,8.13
2018-06-18T04:15:28.082Z,9.43
2018-06-18T04:17:55.493Z,7.67
2018-06-18T04:20:23.376Z,8.00
2018-06-18T04:22:50.727Z,7.97
2018-06-18T04:25:18.084Z,8.83
2018-06-18T04:27:45.373Z,8.67
2018-06-18T04:30:12.804Z,10.07
2018-06-18T04:32:40.090Z,8.13
2018-06-18T04:35:08.846Z,9.10
2018-06-18T04:37:36.202Z,10.50
2018-06-18T04:40:03.912Z,7.30
2018-06-18T04:42:36.919Z,7.90
2018-06-18T04:45:09.802Z,6.63
2018-06-18T04:47:43.048Z,8.37
2018-06-18T04:50:16.033Z,8.17
2018-06-18T04:52:43.342Z,7.67
2018-06-18T04:55:10.694Z,12.57
2018-06-18T04:57:37.978Z,8.10
2018-06-18T05:00:17.434Z,11.53
2018-06-18T05:02:44.783Z,10.30
2018-06-18T05:05:12.090Z,14.80
2018-06-18T05:07:39.453Z,13.90
2018-06-18T05:10:14.696Z,9.60
2018-06-18T05:12:42.195Z,10.20
2018-06-18T05:15:09.496Z,8.27
2018-06-18T05:17:36.913Z,10.40
2018-06-18T05:20:05.753Z,9.07
2018-06-18T05:22:33.204Z,7.50
2018-06-18T05:25:00.503Z,8.90
2018-06-18T05:27:30.164Z,10.33
2018-06-18T05:30:00.993Z,8.50
2018-06-18T05:32:28.300Z,8.17
2018-06-18T05:34:55.621Z,9.80
2018-06-18T05:37:29.348Z,11.47
2018-06-18T05:39:56.668Z,7.10
2018-06-18T05:42:23.993Z,9.20
2018-06-18T05:44:51.275Z,10.37
2018-06-18T05:47:18.676Z,13.03
2018-06-18T05:49:46.026Z,7.20
2018-06-18T05:52:13.362Z,5.77
2018-06-18T05:54:40.641Z,8.03
2018-06-18T05:57:08.099Z,7.13
2018-06-18T05:59:35.417Z,4.83
2018-06-18T06:02:02.687Z,8.93
2018-06-18T06:04:29.998Z,4.87
2018-06-18T06:06:57.263Z,6.83
2018-06-18T06:09:24.651Z,4.97
2018-06-18T06:11:52.045Z,4.77
2018-06-18T06:14:19.349Z,6.63
2018-06-18T06:16:46.857Z,6.40
2018-06-18T06:19:14.162Z,5.77
2018-06-18T06:21:41.550Z,5.77
2018-06-18T06:24:08.824Z,12.23
2018-06-18T06:26:36.117Z,11.20
2018-06-18T06:29:03.439Z,4.93
2018-06-18T06:31:30.742Z,6.03
2018-06-18T06:33:58.083Z,6.07
2018-06-18T06:36:26.712Z,4.37
2018-06-18T06:38:54.276Z,8.07
2018-06-18T06:41:21.858Z,4.70
2018-06-18T06:43:50.618Z,6.00
2018-06-18T06:46:18.058Z,5.87
2018-06-18T06:48:45.664Z,5.00
2018-06-18T06:51:12.991Z,5.07
2018-06-18T06:53:40.264Z,4.70
2018-06-18T06:56:07.536Z,8.13
2018-06-18T06:58:34.948Z,4.20
2018-06-18T07:01:02.315Z,8.27
2018-06-18T07:03:29.662Z,7.33
2018-06-18T07:05:56.949Z,5.30
2018-06-18T07:08:24.246Z,10.70
2018-06-18T07:10:51.547Z,4.97
2018-06-18T07:13:18.865Z,7.13
2018-06-18T07:15:46.171Z,9.40
2018-06-18T07:18:13.590Z,4.70
2018-06-18T07:20:40.880Z,10.47
2018-06-18T07:23:08.171Z,8.50
2018-06-18T07:25:35.593Z,8.40
2018-06-18T07:28:02.947Z,6.30
2018-06-18T07:30:30.360Z,4.27
2018-06-18T07:32:57.467Z,9.10
2018-06-18T07:35:24.870Z,5.27
2018-06-18T07:37:52.459Z,7.43
2018-06-18T07:40:19.774Z,9.40
2018-06-18T07:42:47.405Z,8.67
2018-06-18T07:45:14.720Z,4.03
2018-06-18T07:47:45.504Z,6.00
2018-06-18T07:50:12.842Z,3.73
2018-06-18T07:52:40.141Z,5.13
2018-06-18T07:55:07.448Z,5.83
2018-06-18T07:57:34.964Z,4.87
2018-06-18T08:00:02.253Z,4.23
2018-06-18T08:02:29.562Z,5.70
2018-06-18T08:04:56.904Z,7.07
2018-06-18T08:07:24.590Z,7.97
2018-06-18T08:09:52.297Z,7.43
2018-06-18T08:12:19.669Z,6.07
2018-06-18T08:14:47.054Z,7.73
2018-06-18T08:17:14.357Z,9.27
2018-06-18T08:19:41.667Z,4.50
2018-06-18T08:22:09.366Z,6.80
2018-06-18T08:24:36.690Z,6.53
2018-06-18T08:27:04.072Z,5.67
2018-06-18T08:29:31.445Z,5.30
2018-06-18T08:31:58.885Z,9.97
2018-06-18T08:34:26.810Z,5.13
2018-06-18T08:36:54.219Z,5.63
2018-06-18T08:39:22.234Z,5.13
2018-06-18T08:41:50.144Z,6.20
2018-06-18T08:44:17.701Z,4.40
2018-06-18T08:46:45.048Z,8.23
2018-06-18T08:49:12.414Z,8.93
2018-06-18T08:51:45.546Z,4.60
2018-06-18T08:54:18.441Z,5.63
2018-06-18T08:56:51.377Z,5.53
2018-06-18T08:59:24.408Z,6.47
2018-06-18T09:01:51.869Z,4.40
2018-06-18T09:04:24.788Z,4.33
2018-06-18T09:06:55.890Z,7.80
2018-06-18T09:09:23.200Z,4.67
2018-06-18T09:11:50.750Z,6.10
2018-06-18T09:14:18.145Z,6.03
2018-06-18T09:16:45.462Z,4.40
2018-06-18T09:19:12.831Z,5.70
2018-06-18T09:21:40.209Z,7.57
2018-06-18T09:24:07.587Z,4.13
2018-06-18T09:26:34.928Z,4.97
2018-06-18T09:29:03.002Z,6.13
2018-06-18T09:31:30.413Z,5.53
2018-06-18T09:33:57.742Z,6.27
2018-06-18T09:36:25.173Z,8.60
2018-06-18T09:38:52.581Z,7.73
2018-06-18T09:41:19.987Z,9.33
2018-06-18T09:43:48.415Z,8.10
2018-06-18T09:46:15.800Z,4.47
2018-06-18T09:48:48.900Z,6.83
2018-06-18T09:51:21.749Z,4.87
2018-06-18T09:53:54.610Z,8.63
2018-06-18T09:56:27.841Z,10.53
2018-06-18T09:59:01.020Z,6.97
2018-06-18T10:01:34.032Z,8.80
2018-06-18T10:04:02.854Z,6.97
2018-06-18T10:06:32.070Z,7.50
2018-06-18T10:09:01.579Z,9.20
2018-06-18T10:11:28.919Z,6.50
2018-06-18T10:13:56.311Z,7.80
2018-06-18T10:16:23.662Z,5.43
2018-06-18T10:18:51.178Z,5.33
2018-06-18T10:21:18.527Z,7.17
2018-06-18T10:23:46.560Z,8.07
2018-06-18T10:26:13.908Z,7.70
2018-06-18T10:28:41.287Z,7.13
2018-06-18T10:31:08.617Z,7.17
2018-06-18T10:33:41.722Z,6.30
2018-06-18T10:36:14.742Z,7.67
2018-06-18T10:38:47.913Z,4.40
2018-06-18T10:41:20.947Z,4.83
2018-06-18T10:43:48.415Z,4.43
2018-06-18T10:46:15.743Z,7.63
2018-06-18T10:48:43.277Z,4.80
2018-06-18T10:51:10.712Z,5.90
2018-06-18T10:53:38.168Z,4.47
2018-06-18T10:56:05.715Z,3.73
2018-06-18T10:58:33.128Z,4.63
2018-06-18T11:01:03.652Z,4.00
2018-06-18T11:03:31.101Z,4.17
2018-06-18T11:06:04.038Z,7.20
2018-06-18T11:08:31.396Z,7.50
2018-06-18T11:10:59.071Z,4.63
2018-06-18T11:13:26.959Z,5.50
2018-06-18T11:15:54.437Z,4.27
2018-06-18T11:18:27.498Z,5.57
2018-06-18T11:21:00.430Z,3.40
2018-06-18T11:23:33.357Z,5.37
2018-06-18T11:26:06.733Z,4.90
2018-06-18T11:28:34.342Z,5.27
2018-06-18T11:31:01.739Z,3.37
2018-06-18T11:33:29.132Z,4.47
2018-06-18T11:35:56.534Z,6.70
2018-06-18T11:38:24.016Z,5.70
2018-06-18T11:40:51.468Z,6.43
2018-06-18T11:43:19.149Z,4.20
2018-06-18T11:45:46.715Z,5.47
2018-06-18T11:48:20.916Z,5.93
2018-06-18T11:50:48.814Z,4.20
2018-06-18T11:53:16.994Z,6.23
2018-06-18T11:55:44.388Z,4.57
2018-06-18T11:58:11.811Z,4.17
2018-06-18T12:00:44.813Z,4.87
2018-06-18T12:03:17.736Z,5.20
2018-06-18T12:05:50.623Z,3.73
2018-06-18T12:08:23.706Z,4.77
2018-06-18T12:10:51.551Z,5.73
2018-06-18T12:13:19.500Z,3.87
2018-06-18T12:15:47.209Z,5.47
2018-06-18T12:18:14.759Z,2.93
2018-06-18T12:20:42.651Z,7.00
2018-06-18T12:23:10.573Z,5.20
2018-06-18T12:25:38.072Z,6.33
2018-06-18T12:28:05.637Z,5.03
2018-06-18T12:30:33.352Z,4.00
2018-06-18T12:33:00.947Z,5.60
2018-06-18T12:35:28.534Z,5.53
2018-06-18T12:37:55.967Z,4.10
2018-06-18T12:40:23.564Z,5.40
2018-06-18T12:42:51.122Z,5.77
2018-06-18T12:45:24.988Z,4.07
2018-06-18T12:48:21.664Z,5.17
2018-06-18T12:50:58.311Z,4.33
2018-06-18T12:53:31.609Z,4.47
2018-06-18T12:56:07.375Z,4.83
2018-06-18T12:58:35.102Z,3.33
2018-06-18T13:01:02.650Z,6.00
2018-06-18T13:03:30.242Z,7.17
2018-06-18T13:05:57.979Z,3.53
2018-06-18T13:08:25.679Z,4.33
2018-06-18T13:10:53.967Z,8.00
2018-06-18T13:13:22.168Z,4.80
2018-06-18T13:15:50.385Z,6.77
2018-06-18T13:18:18.116Z,4.50
2018-06-18T13:20:45.746Z,5.60
2018-06-18T13:23:13.936Z,6.27
2018-06-18T13:25:42.028Z,6.63
2018-06-18T13:28:15.117Z,3.80
2018-06-18T13:33:17.121Z,5.93
2018-06-18T13:35:46.415Z,6.03
2018-06-18T13:41:08.912Z,3.53
2018-06-18T13:43:43.373Z,5.50
2018-06-18T13:46:16.574Z,4.33
2018-06-18T13:48:44.968Z,6.73
2018-06-18T13:51:12.580Z,9.47
2018-06-18T13:53:50.158Z,4.97
2018-06-18T13:56:18.736Z,3.57
2018-06-18T13:58:46.603Z,4.90
2018-06-18T14:01:14.364Z,3.70
2018-06-18T14:03:42.428Z,4.57
2018-06-18T14:06:10.315Z,4.63
2018-06-18T14:09:03.068Z,4.00
2018-06-18T14:11:30.658Z,3.37
2018-06-18T14:13:59.672Z,4.47
2018-06-18T14:16:29.710Z,4.77
2018-06-18T14:18:59.383Z,2.60
2018-06-18T14:21:31.660Z,4.40
2018-06-18T14:23:59.372Z,3.67
2018-06-18T14:26:35.173Z,5.33
2018-06-18T14:29:14.716Z,4.20
2018-06-18T14:31:51.735Z,3.40
2018-06-18T14:34:24.884Z,4.37
2018-06-18T14:36:58.481Z,3.93
2018-06-18T14:39:31.538Z,3.00
2018-06-18T14:41:58.984Z,6.43
2018-06-18T14:44:57.690Z,3.05
2018-06-18T14:47:25.291Z,4.12
2018-06-18T14:49:53.007Z,4.37
2018-06-18T14:52:20.833Z,3.87
2018-06-18T14:54:48.420Z,4.30
2018-06-18T14:57:16.827Z,7.08
2018-06-18T14:59:55.923Z,5.33
2018-06-18T15:02:24.661Z,3.00
2018-06-18T15:04:52.426Z,4.07
2018-06-18T15:07:20.488Z,4.60
2018-06-18T15:09:50.591Z,6.03
2018-06-18T15:12:20.151Z,4.73
2018-06-18T15:14:52.473Z,4.37
2018-06-18T15:17:19.963Z,4.00
2018-06-18T15:19:47.929Z,3.27
2018-06-18T15:22:15.649Z,5.07
2018-06-18T15:24:48.516Z,5.07
2018-06-18T15:27:16.123Z,6.73
2018-06-18T15:29:43.531Z,3.97
2018-06-18T15:32:11.286Z,5.07
2018-06-18T15:34:38.699Z,2.83
2018-06-18T15:37:21.671Z,2.30
2018-06-18T15:39:49.450Z,3.80
2018-06-18T15:42:16.930Z,4.27
2018-06-18T15:44:44.890Z,4.70
2018-06-18T15:47:14.430Z,4.20
2018-06-18T15:49:42.212Z,3.80
2018-06-18T15:52:11.850Z,3.90
2018-06-18T15:54:39.456Z,8.73
2018-06-18T15:57:11.246Z,3.33
2018-06-18T16:00:05.531Z,2.83
2018-06-18T16:02:47.825Z,2.83
2018-06-18T16:05:15.391Z,2.00
2018-06-18T16:07:42.878Z,2.57
2018-06-18T16:10:10.339Z,3.10
2018-06-18T16:12:42.431Z,3.10
2018-06-18T16:15:09.935Z,2.73
2018-06-18T16:17:37.832Z,3.33
2018-06-18T16:20:05.345Z,3.37
2018-06-18T16:22:32.752Z,3.33
2018-06-18T16:25:00.170Z,2.97
2018-06-18T16:27:27.720Z,3.77
2018-06-18T16:29:55.415Z,5.43
2018-06-18T16:32:22.849Z,3.13
2018-06-18T16:34:52.646Z,4.90
2018-06-18T16:37:26.097Z,3.57
2018-06-18T16:39:54.000Z,4.30
2018-06-18T16:42:21.699Z,3.37
2018-06-18T16:44:49.319Z,5.30
2018-06-18T16:47:16.880Z,4.70
2018-06-18T16:49:44.248Z,3.10
2018-06-18T16:52:11.667Z,3.17
2018-06-18T16:54:42.631Z,3.60
2018-06-18T16:57:45.457Z,3.90
2018-06-18T17:00:12.891Z,4.03
2018-06-18T17:02:45.171Z,5.07
2018-06-18T17:05:12.950Z,10.00
2018-06-18T17:07:54.020Z,5.90
2018-06-18T17:10:21.771Z,2.33
2018-06-18T17:12:49.128Z,5.20
2018-06-18T17:15:16.607Z,3.50
2018-06-18T17:17:43.983Z,3.00
2018-06-18T17:20:11.576Z,4.73
2018-06-18T17:22:39.116Z,4.27
2018-06-18T17:25:06.605Z,3.10
2018-06-18T17:27:34.237Z,3.30
2018-06-18T17:30:01.882Z,3.30
2018-06-18T17:32:29.319Z,3.30
2018-06-18T17:34:56.619Z,3.77
2018-06-18T17:37:23.971Z,2.87
2018-06-18T17:39:51.375Z,5.83
2018-06-18T17:42:18.996Z,4.73
2018-06-18T17:44:46.480Z,6.00
2018-06-18T17:47:14.242Z,4.30
2018-06-18T17:49:42.822Z,5.27
2018-06-18T17:52:20.843Z,5.97
2018-06-18T17:54:48.319Z,4.43
2018-06-18T17:57:15.682Z,3.70
2018-06-18T17:59:43.874Z,2.27
2018-06-18T18:02:12.566Z,4.83
2018-06-18T18:04:40.003Z,3.30
2018-06-18T18:07:07.663Z,4.33
2018-06-18T18:09:36.218Z,6.20
2018-06-18T18:12:03.971Z,2.10
2018-06-18T18:14:33.181Z,5.97
2018-06-18T18:17:00.649Z,4.37
2018-06-18T18:19:28.247Z,4.20
2018-06-18T18:22:10.164Z,4.73
2018-06-18T18:24:52.712Z,4.67
2018-06-18T18:27:20.416Z,3.93
2018-06-18T18:29:48.022Z,4.80
2018-06-18T18:32:19.061Z,3.27
2018-06-18T18:34:46.664Z,4.17
2018-06-18T18:37:43.564Z,3.97
2018-06-18T18:40:12.069Z,2.63
2018-06-18T18:42:40.470Z,6.23
2018-06-18T18:45:08.173Z,5.30
2018-06-18T18:47:35.916Z,6.47
2018-06-18T18:50:03.803Z,3.10
2018-06-18T18:52:32.064Z,12.10
2018-06-18T18:55:45.277Z,9.90
2018-06-18T18:58:24.253Z,16.87
2018-06-18T19:00:52.953Z,3.83
2018-06-18T19:03:26.482Z,7.60
2018-06-18T19:06:02.607Z,4.10
2018-06-18T19:08:49.546Z,7.13
2018-06-18T19:11:17.298Z,6.73
2018-06-18T19:13:45.361Z,7.57
2018-06-18T19:16:14.345Z,24.90
2018-06-18T19:18:45.973Z,15.77
2018-06-18T19:21:14.271Z,16.47
2018-06-18T19:23:41.672Z,9.70
2018-06-18T19:26:10.424Z,6.00
2018-06-18T19:28:37.971Z,6.10
2018-06-18T19:31:12.467Z,5.27
2018-06-18T19:33:54.400Z,6.33
2018-06-18T19:36:22.557Z,25.50
2018-06-18T19:38:50.853Z,50.27
2018-06-18T19:41:18.687Z,15.47
2018-06-18T19:43:46.788Z,10.17
2018-06-18T19:46:16.301Z,10.70
2018-06-18T19:48:53.204Z,10.00
2018-06-18T19:51:20.756Z,9.37
2018-06-18T19:53:48.616Z,9.40
2018-06-18T19:56:21.238Z,10.97
2018-06-18T19:58:48.774Z,6.40
2018-06-18T20:01:17.492Z,6.67
2018-06-18T20:03:46.318Z,7.03
2018-06-18T20:06:14.198Z,5.57
2018-06-18T20:08:42.052Z,5.47
2018-06-18T20:11:09.521Z,5.93
2018-06-18T20:13:37.001Z,6.13
2018-06-18T20:16:04.437Z,7.90
2018-06-18T20:18:31.926Z,17.27
2018-06-18T20:20:59.284Z,8.30
2018-06-18T20:23:27.243Z,7.17
2018-06-18T20:26:06.008Z,9.00
2018-06-18T20:28:33.373Z,8.67
2018-06-18T20:31:00.840Z,24.53
2018-06-18T20:33:35.099Z,27.43
2018-06-18T20:36:09.224Z,24.17
2018-06-18T20:38:36.625Z,16.00
2018-06-18T20:41:04.081Z,8.77
2018-06-18T20:43:38.609Z,7.90
2018-06-18T20:46:06.346Z,6.57
2018-06-18T20:48:34.782Z,8.60
2018-06-18T20:51:02.969Z,8.67
2018-06-18T20:53:31.195Z,7.30
2018-06-18T20:55:59.306Z,7.33
2018-06-18T20:58:27.213Z,8.70
2018-06-18T21:00:55.069Z,5.37
2018-06-18T21:03:23.558Z,5.30
2018-06-18T21:05:51.443Z,4.97
2018-06-18T21:08:19.699Z,8.27
2018-06-18T21:10:47.828Z,6.30
2018-06-18T21:13:16.202Z,7.00
2018-06-18T21:15:44.887Z,10.00
2018-06-18T21:18:13.050Z,9.40
2018-06-18T21:20:41.167Z,8.70
2018-06-18T21:23:09.298Z,7.03
2018-06-18T21:25:37.460Z,7.97
2018-06-18T21:28:06.562Z,6.53
2018-06-18T21:30:49.883Z,7.00
2018-06-18T21:33:17.798Z,8.90
2018-06-18T21:35:46.644Z,7.83
2018-06-18T21:38:14.852Z,7.13
2018-06-18T21:40:42.702Z,12.20
2018-06-18T21:43:10.535Z,8.93
2018-06-18T21:45:38.415Z,7.00
2018-06-18T21:48:11.618Z,10.60
2018-06-18T21:50:39.331Z,8.07
2018-06-18T21:53:06.721Z,13.57
2018-06-18T21:55:34.043Z,9.97
2018-06-18T21:58:01.458Z,9.07
2018-06-18T22:00:31.472Z,10.70
2018-06-18T22:02:58.800Z,11.13
2018-06-18T22:05:26.254Z,9.10
2018-06-18T22:07:54.157Z,8.37
2018-06-18T22:10:21.438Z,8.20
2018-06-18T22:12:48.832Z,8.63
2018-06-18T22:15:16.299Z,9.27
2018-06-18T22:17:44.597Z,6.73
2018-06-18T22:20:12.148Z,8.00
2018-06-18T22:22:39.472Z,8.07
2018-06-18T22:25:06.754Z,8.37
2018-06-18T22:27:34.060Z,7.53
2018-06-18T22:30:01.539Z,12.63
2018-06-18T22:32:29.285Z,7.30
2018-06-18T22:34:56.727Z,7.53
2018-06-18T22:37:24.122Z,8.17
2018-06-18T22:39:51.796Z,10.90
2018-06-18T22:42:19.148Z,8.17
2018-06-18T22:45:06.941Z,9.23
2018-06-18T22:47:34.352Z,9.27
2018-06-18T22:50:01.699Z,7.57
2018-06-18T22:52:29.013Z,9.80
2018-06-18T22:54:56.492Z,10.40
2018-06-18T22:57:23.968Z,9.93
2018-06-18T22:59:51.346Z,9.23
2018-06-18T23:02:26.819Z,10.17
2018-06-18T23:04:54.200Z,8.30
2018-06-18T23:07:21.569Z,7.80
2018-06-18T23:09:49.709Z,9.53
2018-06-18T23:12:18.021Z,7.20
2018-06-18T23:14:46.734Z,6.90
2018-06-18T23:17:14.277Z,7.37
2018-06-18T23:19:41.633Z,8.73
2018-06-18T23:22:12.238Z,7.43
2018-06-18T23:24:39.683Z,6.97
2018-06-18T23:27:07.771Z,6.63
2018-06-18T23:29:35.077Z,9.03
2018-06-18T23:32:02.490Z,9.70
2018-06-18T23:34:29.971Z,7.30
2018-06-18T23:36:57.337Z,6.83
2018-06-18T23:39:24.621Z,7.23
2018-06-18T23:41:54.062Z,9.73
2018-06-18T23:44:21.370Z,7.73
2018-06-18T23:46:48.911Z,9.23
2018-06-18T23:49:16.425Z,7.90
2018-06-18T23:51:43.894Z,7.97
2018-06-18T23:54:11.353Z,9.40
2018-06-18T23:56:38.783Z,9.63
2018-06-18T23:59:06.484Z,7.13
